Погода Голубинкана неделю

Ростовская область, Россия

20 - 26 мая
  • 20мая
    Сегодня
    +10°
    +23°
    Практически безоблачно
    ВремяПогодаТемператураВлажностьДавлениеВетер, м/сВероятность осадков
    00:00Ясно и безоблачно+11°C85 %760 мм1.8 м/с2 %
    03:00Ясно и безоблачно+11°C86 %760 мм0.6 м/с2 %
    06:00Ясно и безоблачно+11°C84 %761 мм0.7 м/с2 %
    09:00Практически безоблачно+19°C52 %761 мм2.0 м/с2 %
    12:00Практически безоблачно+22°C42 %761 мм2.4 м/с6 %
    15:00Практически безоблачно+22°C40 %761 мм1.8 м/с3 %
    18:00Практически безоблачно+22°C39 %761 мм1.8 м/с2 %
    21:00Ясно и безоблачно+16°C62 %762 мм2.1 м/с2 %
  • 21мая
    Вторник
    +10°
    +25°
    Облачно с прояснениями
    ВремяПогодаТемператураВлажностьДавлениеВетер, м/сВероятность осадков
    00:00Ясно и безоблачно+14°C62 %762 мм1.1 м/с2 %
    03:00Ясно и безоблачно+10°C85 %762 мм1.7 м/с2 %
    06:00Ясно и безоблачно+12°C74 %763 мм2.7 м/с2 %
    09:00Ясно и безоблачно+21°C44 %763 мм1.6 м/с2 %
    12:00Небольшая облачность+24°C30 %763 мм1.0 м/с2 %
    15:00Облачно с прояснениями+25°C27 %762 мм1.3 м/с2 %
    18:00Практически безоблачно+24°C30 %762 мм1.6 м/с2 %
    21:00Ясно и безоблачно+18°C47 %762 мм2.3 м/с2 %
  • 22мая
    Среда
    +10°
    +27°
    Практически безоблачно
    ВремяПогодаТемператураВлажностьДавлениеВетер, м/сВероятность осадков
    00:00Небольшая облачность+14°C61 %762 мм2.7 м/с2 %
    03:00Ясно и безоблачно+13°C56 %762 мм2.7 м/с2 %
    06:00Ясно и безоблачно+13°C60 %762 мм1.2 м/с2 %
    09:00Ясно и безоблачно+23°C33 %762 мм1.4 м/с2 %
    12:00Ясно и безоблачно+26°C24 %762 мм3.3 м/с2 %
    15:00Практически безоблачно+27°C21 %760 мм3.7 м/с2 %
    18:00Ясно и безоблачно+25°C23 %760 мм3.6 м/с2 %
    21:00Ясно и безоблачно+18°C42 %760 мм2.2 м/с2 %
  • 23мая
    Четверг
    +13°
    +28°
    Практически безоблачно
    ВремяПогодаТемператураВлажностьДавлениеВетер, м/сВероятность осадков
    00:00Ясно и безоблачно+15°C50 %760 мм2.2 м/с2 %
    03:00Ясно и безоблачно+11°C59 %760 мм2.2 м/с2 %
    06:00Ясно и безоблачно+12°C57 %761 мм2.2 м/с2 %
    09:00Ясно и безоблачно+23°C36 %761 мм1.7 м/с2 %
    12:00Ясно и безоблачно+27°C24 %760 мм3.6 м/с3 %
    15:00Практически безоблачно+28°C24 %760 мм3.4 м/с7 %
    18:00Практически безоблачно+26°C26 %760 мм3.9 м/с8 %
    21:00Ясно и безоблачно+21°C39 %761 мм5.1 м/с2 %
  • 24мая
    Пятница
    +9°
    +23°
    Ясно и безоблачно
    ВремяПогодаТемператураВлажностьДавлениеВетер, м/сВероятность осадков
    00:00Практически безоблачно+17°C56 %762 мм4.6 м/с2 %
    03:00Ясно и безоблачно+15°C72 %762 мм5.0 м/с2 %
    06:00Ясно и безоблачно+13°C52 %764 мм6.1 м/с2 %
    09:00Ясно и безоблачно+18°C39 %765 мм6.9 м/с2 %
    12:00Ясно и безоблачно+22°C33 %765 мм7.6 м/с4 %
    15:00Ясно и безоблачно+23°C27 %765 мм7.1 м/с7 %
    18:00Ясно и безоблачно+21°C22 %765 мм7.3 м/с5 %
    21:00Ясно и безоблачно+17°C25 %766 мм5.8 м/с2 %
Мы используем cookies
Соглашаюсь